Time;durP1;ratioP1;P1;durP2;ratioP2;P2;SDS_P1;SDS_P2;PMS_P1;PMS_P2;Temp;Humidity;BMP_temperature;BMP_pressure;BME280_temperature;BME280_humidity;BME280_pressure;Samples;Min_cycle;Max_cycle;Signal;HPM_P1;HPM_P2
2020/12/09 00:00:07;;;;;;;11.63;10.43;;;6.40;58.20;;;;;;5067991;28;20245;-64
2020/12/09 00:02:34;;;;;;;12.80;11.60;;;6.40;58.30;;;;;;5066057;28;20208;-63
2020/12/09 00:05:00;;;;;;;11.50;10.40;;;6.40;58.30;;;;;;5064442;28;20217;-63
2020/12/09 00:07:27;;;;;;;12.70;11.47;;;6.30;58.30;;;;;;5064503;28;20217;-60
2020/12/09 00:09:53;;;;;;;12.37;11.10;;;6.30;58.30;;;;;;5064084;28;20792;-63
2020/12/09 00:12:23;;;;;;;12.40;11.20;;;6.30;58.40;;;;;;5067250;28;20576;-61
2020/12/09 00:14:49;;;;;;;12.03;10.83;;;6.20;58.60;;;;;;5066412;28;20227;-61
2020/12/09 00:17:15;;;;;;;12.03;10.87;;;6.20;58.50;;;;;;5064795;28;20804;-61
2020/12/09 00:19:42;;;;;;;11.30;10.20;;;6.20;58.60;;;;;;5064546;28;20211;-63
2020/12/09 00:22:09;;;;;;;12.63;11.40;;;6.10;58.60;;;;;;5062682;28;20212;-61
2020/12/09 00:24:35;;;;;;;12.80;11.50;;;6.20;58.70;;;;;;5065105;28;20224;-66
2020/12/09 00:27:02;;;;;;;12.20;11.03;;;6.10;58.70;;;;;;5064225;28;20220;-63
2020/12/09 00:29:29;;;;;;;12.07;10.87;;;6.10;58.80;;;;;;5064032;28;20216;-61
2020/12/09 00:50:27;;;;;;;10.57;9.57;;;6.20;58.80;;;;;;5085118;22;20260;-60
2020/12/09 00:52:54;;;;;;;12.40;11.20;;;6.10;58.50;;;;;;5028382;28;20218;-63
2020/12/09 00:55:20;;;;;;;12.23;11.03;;;6.10;58.60;;;;;;5036737;28;20201;-63
2020/12/09 00:57:47;;;;;;;11.57;10.40;;;6.10;58.60;;;;;;5035427;28;20216;-61
2020/12/09 01:00:14;;;;;;;12.23;11.03;;;6.00;58.60;;;;;;5036586;28;20209;-62
2020/12/09 01:02:40;;;;;;;11.93;10.73;;;6.00;58.70;;;;;;5025235;28;20631;-63
2020/12/09 01:05:09;;;;;;;12.10;10.97;;;6.00;58.60;;;;;;5025422;28;20241;-63
2020/12/09 01:07:36;;;;;;;11.97;10.80;;;6.00;58.70;;;;;;5024625;28;20305;-63
2020/12/09 01:10:05;;;;;;;11.73;10.63;;;5.90;58.70;;;;;;5025000;28;20229;-62
2020/12/09 01:12:32;;;;;;;12.27;11.13;;;6.00;58.80;;;;;;5025682;28;20578;-62
2020/12/09 01:14:58;;;;;;;12.70;11.40;;;5.90;58.70;;;;;;5016843;28;20211;-62
2020/12/09 01:17:24;;;;;;;12.33;11.13;;;5.90;59.40;;;;;;5024633;28;20627;-61
2020/12/09 01:19:51;;;;;;;11.73;10.63;;;5.90;58.80;;;;;;5027210;28;20236;-62
2020/12/09 01:22:17;;;;;;;12.30;11.13;;;5.80;58.90;;;;;;5026304;28;20222;-62
2020/12/09 01:24:44;;;;;;;12.53;11.33;;;5.80;58.90;;;;;;5025880;28;20233;-62
2020/12/09 01:27:11;;;;;;;12.40;11.20;;;5.90;59.00;;;;;;5028137;28;20198;-62
2020/12/09 01:29:38;;;;;;;11.90;10.80;;;5.80;59.00;;;;;;5030464;28;20211;-61
2020/12/09 01:32:04;;;;;;;12.60;11.40;;;5.80;59.10;;;;;;5024092;28;20241;-61
2020/12/09 01:34:30;;;;;;;12.03;10.93;;;5.80;59.10;;;;;;5027384;28;20202;-62
2020/12/09 01:37:00;;;;;;;12.50;11.30;;;5.80;59.20;;;;;;5027136;28;20210;-62
2020/12/09 01:39:27;;;;;;;12.77;11.53;;;5.80;59.30;;;;;;5027152;28;20636;-63
2020/12/09 01:41:54;;;;;;;12.73;11.53;;;5.80;59.30;;;;;;5027406;28;20237;-61
2020/12/09 01:44:20;;;;;;;12.07;10.87;;;5.80;59.30;;;;;;5029166;28;20206;-64
2020/12/09 01:46:49;;;;;;;12.73;11.53;;;5.90;59.40;;;;;;5030506;28;20198;-62
2020/12/09 01:49:16;;;;;;;11.50;10.37;;;5.90;60.10;;;;;;5031569;28;20207;-63
2020/12/09 01:51:43;;;;;;;12.00;10.90;;;5.90;59.50;;;;;;5028060;28;20247;-63
2020/12/09 01:54:09;;;;;;;13.07;11.83;;;5.90;59.60;;;;;;5031101;28;20206;-63
2020/12/09 01:56:36;;;;;;;13.17;11.87;;;6.00;59.80;;;;;;5027786;28;20683;-59
2020/12/09 01:59:03;;;;;;;13.53;12.17;;;6.00;59.90;;;;;;5024182;28;20218;-62
2020/12/09 02:01:31;;;;;;;12.63;11.43;;;6.10;60.00;;;;;;5025864;28;20226;-61
2020/12/09 02:03:58;;;;;;;13.70;12.30;;;6.20;60.00;;;;;;5029168;28;20213;-61
2020/12/09 02:06:25;;;;;;;12.90;11.70;;;6.30;60.00;;;;;;5033392;28;20232;-60
2020/12/09 02:08:51;;;;;;;12.77;11.63;;;6.40;60.00;;;;;;5033864;28;20209;-61
2020/12/09 02:11:18;;;;;;;12.70;11.50;;;6.50;59.90;;;;;;5033319;28;20349;-60
2020/12/09 02:13:46;;;;;;;12.40;11.30;;;6.60;59.90;;;;;;5034283;28;20297;-61
2020/12/09 02:16:17;;;;;;;12.40;11.30;;;6.70;59.90;;;;;;5032154;28;20198;-62
2020/12/09 02:18:44;;;;;;;13.10;11.90;;;6.80;59.80;;;;;;5033237;28;20208;-63
2020/12/09 02:21:11;;;;;;;13.17;11.87;;;6.90;60.50;;;;;;5024239;28;20223;-61
2020/12/09 02:23:38;;;;;;;12.53;11.40;;;7.00;59.60;;;;;;5029335;28;20195;-63
2020/12/09 02:26:04;;;;;;;12.87;11.67;;;7.10;59.60;;;;;;5026533;28;20298;-62
2020/12/09 02:28:31;;;;;;;12.70;11.60;;;7.20;59.50;;;;;;5029778;28;20206;-62
2020/12/09 02:30:57;;;;;;;13.13;11.83;;;7.20;59.30;;;;;;5028432;28;20233;-63
2020/12/09 02:33:24;;;;;;;12.10;11.10;;;7.30;59.30;;;;;;5024555;28;20206;-62
2020/12/09 02:35:50;;;;;;;12.47;11.37;;;7.40;59.20;;;;;;5029790;28;20676;-63
2020/12/09 02:38:17;;;;;;;13.33;12.13;;;7.50;59.20;;;;;;5030338;28;20210;-62
2020/12/09 02:40:44;;;;;;;13.13;12.00;;;7.50;59.00;;;;;;5025883;28;20230;-63
2020/12/09 02:43:10;;;;;;;13.20;12.00;;;7.50;59.00;;;;;;5025149;28;20233;-63
2020/12/09 02:45:37;;;;;;;12.83;11.63;;;7.60;58.90;;;;;;5024678;28;20718;-62
2020/12/09 02:48:03;;;;;;;13.30;12.10;;;7.60;58.80;;;;;;5027990;28;20218;-63
2020/12/09 02:50:30;;;;;;;13.17;12.07;;;7.70;58.80;;;;;;5026764;28;20207;-62
2020/12/09 02:52:56;;;;;;;12.43;11.33;;;7.70;58.60;;;;;;5026585;28;20784;-63
2020/12/09 02:55:22;;;;;;;13.03;11.83;;;7.80;58.60;;;;;;5028958;28;20268;-64
2020/12/09 02:57:50;;;;;;;13.23;12.00;;;7.80;58.50;;;;;;5028158;28;20215;-61
2020/12/09 03:00:17;;;;;;;13.07;11.87;;;7.90;58.50;;;;;;5025620;28;20221;-59
2020/12/09 03:02:43;;;;;;;13.20;12.00;;;7.90;58.40;;;;;;5027169;28;20206;-60
2020/12/09 03:05:10;;;;;;;12.90;11.70;;;7.90;58.30;;;;;;5027876;28;20699;-61
2020/12/09 03:07:36;;;;;;;12.40;11.30;;;7.90;58.30;;;;;;5024915;28;20213;-61
2020/12/09 03:10:04;;;;;;;12.87;11.77;;;8.00;58.20;;;;;;5027318;28;20267;-61
2020/12/09 03:12:30;;;;;;;13.47;12.17;;;8.00;58.20;;;;;;5028301;28;20305;-61
2020/12/09 03:14:58;;;;;;;13.07;11.87;;;8.00;58.20;;;;;;5026836;28;20241;-63
2020/12/09 03:17:24;;;;;;;12.30;11.20;;;8.00;58.10;;;;;;5029669;28;20206;-62
2020/12/09 03:19:51;;;;;;;13.27;12.07;;;8.00;58.00;;;;;;5028320;28;20309;-62
2020/12/09 03:22:18;;;;;;;12.90;11.73;;;8.00;58.00;;;;;;5025068;28;20608;-63
2020/12/09 03:24:44;;;;;;;11.93;10.87;;;8.00;57.90;;;;;;5026820;28;20226;-63
2020/12/09 03:27:10;;;;;;;12.73;11.63;;;8.00;57.90;;;;;;5025954;28;20206;-64
2020/12/09 03:29:37;;;;;;;12.73;11.63;;;8.00;57.90;;;;;;5027749;28;20206;-63
2020/12/09 03:32:04;;;;;;;12.93;11.73;;;8.00;57.80;;;;;;5022836;28;20787;-61
2020/12/09 03:34:31;;;;;;;13.87;12.57;;;8.00;57.80;;;;;;5026865;28;20731;-62
2020/12/09 03:36:57;;;;;;;12.57;11.37;;;8.00;57.80;;;;;;5027225;28;20207;-62
2020/12/09 03:39:24;;;;;;;12.90;11.70;;;8.00;57.80;;;;;;5024942;28;20578;-63
2020/12/09 03:41:50;;;;;;;12.57;11.47;;;8.00;57.80;;;;;;5026641;28;20225;-62
2020/12/09 03:44:17;;;;;;;13.60;12.40;;;8.00;57.90;;;;;;5028542;28;20742;-62
2020/12/09 03:46:43;;;;;;;12.73;11.63;;;8.00;57.90;;;;;;5022897;28;20753;-61
2020/12/09 03:49:10;;;;;;;13.90;12.60;;;8.00;57.90;;;;;;5029115;28;20202;-62
2020/12/09 03:51:37;;;;;;;13.37;12.17;;;8.00;57.90;;;;;;5027190;28;20813;-61
2020/12/09 03:54:03;;;;;;;13.70;12.40;;;8.00;57.80;;;;;;5026459;28;20202;-60
2020/12/09 03:56:30;;;;;;;12.67;11.53;;;8.00;57.90;;;;;;5027300;28;20214;-63
2020/12/09 03:58:56;;;;;;;13.10;12.00;;;8.00;57.80;;;;;;5028669;28;20202;-63
2020/12/09 04:01:23;;;;;;;13.97;12.70;;;8.10;57.80;;;;;;5024770;28;20237;-63
2020/12/09 04:03:49;;;;;;;12.87;11.70;;;8.00;57.80;;;;;;5026489;28;20210;-61
2020/12/09 04:06:16;;;;;;;13.13;12.03;;;8.00;57.80;;;;;;5028080;28;20997;-63
2020/12/09 04:08:43;;;;;;;13.73;12.53;;;8.00;57.80;;;;;;5027512;28;20218;-63
2020/12/09 04:11:09;;;;;;;14.53;13.23;;;8.10;57.80;;;;;;5026049;28;20265;-63
2020/12/09 04:13:36;;;;;;;13.53;12.33;;;8.10;57.80;;;;;;5027125;28;20206;-62
2020/12/09 04:16:02;;;;;;;13.03;11.93;;;8.10;57.80;;;;;;5026722;28;20206;-63
2020/12/09 04:18:29;;;;;;;13.20;12.00;;;8.10;57.80;;;;;;5024032;28;20586;-61
2020/12/09 04:20:55;;;;;;;13.77;12.57;;;8.10;57.80;;;;;;5024759;28;20230;-61
2020/12/09 04:23:22;;;;;;;13.23;12.03;;;8.10;57.80;;;;;;5021698;28;20290;-63
2020/12/09 04:25:49;;;;;;;12.80;11.60;;;8.10;57.80;;;;;;5024523;28;20738;-63
2020/12/09 04:28:15;;;;;;;14.10;12.80;;;8.10;57.80;;;;;;5027569;28;20206;-60
2020/12/09 04:30:42;;;;;;;13.17;12.07;;;8.10;57.70;;;;;;5025589;28;20226;-62
2020/12/09 04:33:08;;;;;;;13.60;12.40;;;8.10;57.70;;;;;;5022463;28;20233;-63
2020/12/09 04:35:36;;;;;;;12.90;11.80;;;8.10;57.70;;;;;;5027507;28;20222;-64
2020/12/09 04:38:02;;;;;;;13.73;12.53;;;8.20;57.80;;;;;;5027972;28;20771;-62
2020/12/09 04:40:30;;;;;;;14.00;12.80;;;8.20;57.80;;;;;;5021919;28;20202;-63
2020/12/09 04:42:59;;;;;;;13.73;12.53;;;8.20;57.80;;;;;;5027065;28;20217;-61
2020/12/09 04:45:28;;;;;;;14.17;12.87;;;8.20;57.80;;;;;;5026734;28;20317;-62
2020/12/09 04:48:07;;;;;;;13.17;12.00;;;8.20;57.80;;;;;;5025834;28;20210;-63
2020/12/09 04:50:57;;;;;;;13.23;12.03;;;8.20;57.70;;;;;;5025189;28;20202;-63
2020/12/09 04:53:26;;;;;;;13.23;12.00;;;8.20;57.70;;;;;;5027817;28;20202;-62
2020/12/09 04:55:57;;;;;;;14.30;13.00;;;8.30;57.70;;;;;;5028716;28;20206;-60
2020/12/09 04:58:41;;;;;;;14.07;12.77;;;8.30;57.70;;;;;;5026511;28;20198;-62
2020/12/09 05:01:10;;;;;;;12.77;11.63;;;8.30;57.60;;;;;;5027466;28;20589;-62
2020/12/09 05:03:46;;;;;;;14.73;13.43;;;8.30;57.60;;;;;;5026868;28;20213;-61
2020/12/09 05:06:15;;;;;;;13.93;12.67;;;8.30;57.50;;;;;;5029890;28;20222;-61
2020/12/09 05:08:52;;;;;;;14.20;12.80;;;8.30;57.60;;;;;;5028160;28;20202;-62
2020/12/09 05:11:23;;;;;;;14.80;13.47;;;8.30;57.60;;;;;;5026483;28;20225;-62
2020/12/09 05:13:54;;;;;;;14.13;12.83;;;8.30;57.50;;;;;;5031016;28;20201;-63
2020/12/09 05:16:23;;;;;;;14.33;13.03;;;8.40;57.60;;;;;;5026509;28;20226;-62
2020/12/09 05:18:56;;;;;;;14.83;13.47;;;8.30;58.20;;;;;;5031210;28;20203;-63
2020/12/09 05:21:25;;;;;;;14.73;13.33;;;8.40;57.60;;;;;;5027476;28;20222;-63
2020/12/09 05:23:57;;;;;;;15.40;14.00;;;8.40;57.60;;;;;;5028581;28;20598;-63
2020/12/09 05:26:29;;;;;;;14.83;13.40;;;8.40;57.60;;;;;;5022948;28;20639;-62
2020/12/09 05:29:15;;;;;;;14.87;13.43;;;8.40;57.50;;;;;;5029619;28;20211;-63
2020/12/09 05:31:45;;;;;;;15.47;13.97;;;8.40;57.40;;;;;;5026021;28;20238;-63
2020/12/09 05:34:29;;;;;;;15.93;14.43;;;8.40;57.50;;;;;;5029149;28;20660;-62
2020/12/09 05:36:58;;;;;;;16.47;14.83;;;8.30;57.30;;;;;;5031374;28;20205;-62
2020/12/09 05:39:26;;;;;;;16.30;14.70;;;8.40;57.40;;;;;;5030285;28;20214;-60
2020/12/09 05:41:55;;;;;;;15.63;14.13;;;8.40;57.50;;;;;;5029419;28;20232;-63
2020/12/09 05:44:22;;;;;;;16.30;14.73;;;8.40;57.50;;;;;;5031424;28;20206;-60
2020/12/09 05:47:02;;;;;;;16.07;14.53;;;8.40;57.50;;;;;;5028324;28;20453;-63
2020/12/09 05:49:32;;;;;;;15.90;14.33;;;8.30;57.40;;;;;;5029524;28;20225;-63
2020/12/09 05:52:12;;;;;;;15.70;14.20;;;8.40;57.50;;;;;;5025828;28;20241;-62
2020/12/09 05:54:41;;;;;;;15.67;14.17;;;8.40;57.50;;;;;;5027142;28;20209;-62
2020/12/09 05:57:11;;;;;;;15.90;14.40;;;8.40;57.60;;;;;;5029461;28;20213;-64
2020/12/09 05:59:40;;;;;;;15.00;13.50;;;8.40;57.70;;;;;;5026299;28;20229;-64
2020/12/09 06:02:18;;;;;;;16.23;14.63;;;8.40;57.70;;;;;;5027207;28;20230;-63
2020/12/09 06:04:50;;;;;;;15.33;13.87;;;8.40;57.80;;;;;;5027219;28;20213;-64
2020/12/09 06:07:18;;;;;;;16.00;14.53;;;8.30;57.80;;;;;;5026371;28;20225;-63
2020/12/09 06:10:08;;;;;;;16.17;14.60;;;8.30;57.80;;;;;;5027705;28;20680;-62
2020/12/09 06:13:00;;;;;;;15.33;13.83;;;8.30;58.00;;;;;;5028968;28;20809;-64
2020/12/09 06:15:30;;;;;;;13.97;12.63;;;8.30;58.00;;;;;;5029855;28;20203;-62
2020/12/09 06:18:06;;;;;;;15.47;14.00;;;8.30;58.00;;;;;;5026609;28;20214;-64
2020/12/09 06:20:34;;;;;;;14.33;13.00;;;8.30;58.10;;;;;;5028001;28;20234;-63
2020/12/09 06:23:03;;;;;;;15.10;13.70;;;8.20;58.00;;;;;;5027381;28;20746;-63
2020/12/09 06:25:29;;;;;;;16.13;14.63;;;8.20;58.10;;;;;;5026288;28;20707;-64
2020/12/09 06:27:58;;;;;;;14.60;13.20;;;8.20;58.20;;;;;;5027568;28;20202;-62
2020/12/09 06:30:29;;;;;;;16.07;14.50;;;8.20;58.30;;;;;;5027535;28;20213;-63
2020/12/09 06:32:56;;;;;;;14.37;12.97;;;8.20;58.30;;;;;;5028025;28;20218;-64
2020/12/09 06:35:23;;;;;;;15.53;14.07;;;8.20;58.40;;;;;;5022031;28;20230;-63
2020/12/09 06:38:18;;;;;;;17.00;15.40;;;8.10;58.50;;;;;;5020993;28;20260;-62
2020/12/09 06:41:11;;;;;;;14.90;13.53;;;8.10;58.70;;;;;;5020533;28;20218;-63
2020/12/09 06:44:01;;;;;;;14.80;13.40;;;8.10;58.80;;;;;;5020504;28;20209;-63
2020/12/09 06:46:45;;;;;;;15.13;13.63;;;8.10;58.60;;;;;;5021074;28;20233;-63
2020/12/09 06:49:38;;;;;;;15.43;13.97;;;8.00;58.90;;;;;;5020681;28;20543;-63
2020/12/09 06:52:37;;;;;;;15.83;14.33;;;8.00;59.10;;;;;;5046098;22;20256;-63
2020/12/09 06:55:06;;;;;;;15.70;14.10;;;8.00;59.10;;;;;;5076183;28;20227;-62
2020/12/09 06:57:37;;;;;;;15.67;14.07;;;8.00;58.90;;;;;;5075601;28;20213;-61
2020/12/09 07:00:23;;;;;;;16.17;14.60;;;8.00;59.00;;;;;;5076348;28;20689;-60
2020/12/09 07:02:53;;;;;;;15.20;13.70;;;8.00;59.30;;;;;;5078296;28;23162;-62
2020/12/09 07:05:26;;;;;;;15.40;13.87;;;8.00;59.20;;;;;;5080155;28;20311;-60
2020/12/09 07:08:00;;;;;;;16.50;14.90;;;8.00;59.30;;;;;;5077658;28;20631;-63
2020/12/09 07:10:30;;;;;;;15.83;14.27;;;8.00;59.30;;;;;;5078589;28;20216;-62
2020/12/09 07:13:08;;;;;;;15.53;14.07;;;8.00;59.50;;;;;;5076661;28;20304;-61
2020/12/09 07:15:37;;;;;;;14.60;13.17;;;8.00;59.50;;;;;;5082719;28;20206;-62
2020/12/09 07:18:04;;;;;;;14.83;13.33;;;8.00;59.50;;;;;;5078102;28;20294;-61
2020/12/09 07:20:31;;;;;;;15.33;13.83;;;7.90;59.40;;;;;;5074714;28;20199;-62
2020/12/09 07:22:57;;;;;;;16.37;14.77;;;7.90;59.40;;;;;;5079933;28;20242;-61
2020/12/09 07:25:24;;;;;;;16.00;14.53;;;7.90;59.50;;;;;;5079672;28;20311;-62
2020/12/09 07:27:51;;;;;;;16.50;14.90;;;7.90;59.50;;;;;;5076208;28;20208;-60
2020/12/09 07:30:20;;;;;;;15.43;13.83;;;7.90;59.60;;;;;;5077911;28;20216;-63
2020/12/09 07:32:49;;;;;;;16.60;14.90;;;7.90;59.60;;;;;;5075866;28;20303;-62
2020/12/09 07:35:17;;;;;;;16.60;14.90;;;7.90;59.80;;;;;;5079022;28;20200;-63
2020/12/09 07:37:49;;;;;;;16.60;14.97;;;7.90;59.90;;;;;;5075566;28;20580;-61
2020/12/09 07:40:22;;;;;;;16.37;14.77;;;7.90;60.00;;;;;;5082728;28;20219;-63
2020/12/09 07:43:03;;;;;;;16.10;14.60;;;7.90;60.00;;;;;;5080285;28;20308;-64
2020/12/09 07:45:31;;;;;;;15.47;13.93;;;7.90;60.70;;;;;;5081609;28;20236;-62
2020/12/09 07:48:05;;;;;;;16.20;14.60;;;7.90;60.80;;;;;;5080699;28;20208;-62
2020/12/09 07:50:32;;;;;;;15.53;14.00;;;7.90;61.40;;;;;;5075368;28;20200;-64
2020/12/09 07:52:59;;;;;;;16.47;14.77;;;7.80;61.40;;;;;;5075552;28;20250;-63
2020/12/09 07:55:28;;;;;;;16.03;14.37;;;7.90;61.60;;;;;;5077396;28;20208;-64
2020/12/09 07:58:07;;;;;;;15.47;13.97;;;7.80;61.80;;;;;;5084752;28;20289;-63
2020/12/09 08:00:40;;;;;;;15.67;14.17;;;7.80;62.20;;;;;;5077818;28;20215;-64
2020/12/09 08:03:17;;;;;;;16.27;14.67;;;7.80;62.00;;;;;;5078943;28;20224;-63
2020/12/09 08:05:44;;;;;;;15.33;13.47;;;7.80;62.20;;;;;;5085207;28;20765;-61
2020/12/09 08:08:12;;;;;;;15.87;14.30;;;7.80;62.40;;;;;;5086621;28;20627;-64
2020/12/09 08:10:43;;;;;;;15.60;14.10;;;7.80;62.60;;;;;;5081730;28;20308;-65
2020/12/09 08:13:11;;;;;;;17.03;15.23;;;7.80;62.70;;;;;;5088276;28;20642;-63
2020/12/09 08:15:41;;;;;;;15.83;14.23;;;7.80;63.00;;;;;;5083600;28;20201;-64
2020/12/09 08:18:21;;;;;;;15.63;14.03;;;7.80;63.20;;;;;;5075331;28;20213;-64
2020/12/09 08:20:49;;;;;;;16.20;14.50;;;7.80;63.20;;;;;;5078384;28;20207;-63
2020/12/09 08:23:16;;;;;;;16.83;15.13;;;7.80;63.40;;;;;;5082815;28;20228;-64
2020/12/09 08:25:49;;;;;;;15.57;14.00;;;7.80;63.60;;;;;;5083040;28;20232;-64
2020/12/09 08:28:20;;;;;;;16.63;14.97;;;7.90;63.90;;;;;;5084232;28;20302;-63
2020/12/09 08:30:47;;;;;;;16.67;15.07;;;7.90;63.80;;;;;;5082577;28;20208;-64
2020/12/09 08:33:25;;;;;;;15.60;14.10;;;7.90;63.80;;;;;;5084785;28;20234;-63
2020/12/09 08:35:58;;;;;;;15.87;14.27;;;7.90;64.10;;;;;;5084612;28;20207;-62
2020/12/09 08:38:33;;;;;;;15.70;14.00;;;7.90;63.90;;;;;;5083313;28;20705;-63
2020/12/09 08:41:04;;;;;;;17.03;15.33;;;7.90;63.90;;;;;;5082553;28;20264;-64
2020/12/09 08:43:34;;;;;;;16.70;15.00;;;7.90;63.80;;;;;;5086460;28;20224;-63
2020/12/09 08:46:01;;;;;;;16.83;15.13;;;7.90;63.90;;;;;;5082519;28;20225;-63
2020/12/09 08:48:29;;;;;;;17.07;15.33;;;7.90;64.00;;;;;;5085807;28;20272;-63
2020/12/09 08:50:55;;;;;;;16.40;14.80;;;7.90;64.10;;;;;;5085561;28;20205;-65
2020/12/09 08:53:22;;;;;;;17.20;15.33;;;7.90;64.10;;;;;;5082477;28;20331;-64
2020/12/09 08:55:49;;;;;;;18.00;16.17;;;7.90;64.20;;;;;;5083082;28;20537;-64
2020/12/09 08:58:17;;;;;;;17.87;16.00;;;7.90;64.40;;;;;;5085486;28;20208;-64
2020/12/09 09:00:45;;;;;;;17.60;15.80;;;8.00;64.50;;;;;;5080858;28;20202;-64
2020/12/09 09:03:16;;;;;;;17.43;15.63;;;8.00;64.50;;;;;;5083687;28;20303;-64
2020/12/09 09:05:45;;;;;;;17.47;15.77;;;8.00;64.50;;;;;;5086603;28;20232;-64
2020/12/09 09:08:13;;;;;;;17.13;15.43;;;8.00;64.70;;;;;;5083524;28;20201;-63
2020/12/09 09:10:42;;;;;;;17.57;15.77;;;8.00;64.60;;;;;;5082236;28;20204;-63
2020/12/09 09:13:09;;;;;;;17.80;16.00;;;8.00;64.70;;;;;;5083061;28;20242;-60
2020/12/09 09:15:36;;;;;;;19.03;17.03;;;8.00;64.80;;;;;;5083138;28;20203;-62
2020/12/09 09:18:04;;;;;;;18.60;16.60;;;8.00;64.90;;;;;;5083421;28;20204;-62
2020/12/09 09:20:31;;;;;;;17.93;16.10;;;8.00;64.90;;;;;;5082561;28;20614;-63
2020/12/09 09:23:00;;;;;;;18.00;16.13;;;8.10;65.00;;;;;;5084274;28;20283;-62
2020/12/09 09:25:26;;;;;;;17.57;15.70;;;8.10;65.20;;;;;;5078817;28;20204;-65
2020/12/09 09:27:53;;;;;;;18.90;17.00;;;8.10;65.30;;;;;;5080283;28;20212;-65
2020/12/09 09:30:22;;;;;;;18.53;16.67;;;8.20;65.40;;;;;;5082067;28;20242;-64
2020/12/09 09:32:49;;;;;;;18.47;16.53;;;8.20;65.50;;;;;;5083505;28;20316;-65
2020/12/09 09:35:17;;;;;;;18.13;16.27;;;8.20;65.60;;;;;;5083557;28;20205;-65
2020/12/09 09:37:43;;;;;;;17.70;15.90;;;8.20;65.70;;;;;;5085206;28;20259;-66
2020/12/09 09:40:12;;;;;;;18.27;16.37;;;8.20;65.80;;;;;;5081324;28;22019;-65
2020/12/09 09:42:39;;;;;;;17.73;15.90;;;8.20;65.90;;;;;;5085546;28;20239;-64
2020/12/09 09:45:09;;;;;;;18.37;16.47;;;8.30;66.00;;;;;;5086194;28;20204;-66
2020/12/09 09:47:37;;;;;;;19.27;17.37;;;8.30;66.00;;;;;;5086494;28;20224;-64
2020/12/09 09:50:06;;;;;;;17.47;15.63;;;8.30;65.80;;;;;;5087361;28;20822;-64
2020/12/09 09:52:33;;;;;;;18.07;16.03;;;8.30;65.90;;;;;;5086896;28;20781;-64
2020/12/09 09:55:00;;;;;;;17.43;15.73;;;8.30;66.00;;;;;;5089801;28;20287;-64
2020/12/09 09:57:27;;;;;;;18.53;16.63;;;8.30;66.00;;;;;;5087674;28;20196;-64
2020/12/09 09:59:53;;;;;;;18.40;16.57;;;8.30;66.10;;;;;;5089954;28;20208;-64
2020/12/09 10:02:20;;;;;;;17.60;15.80;;;8.30;66.10;;;;;;5087156;28;20220;-64
2020/12/09 10:04:46;;;;;;;17.00;15.30;;;8.30;66.10;;;;;;5082407;28;20196;-65
2020/12/09 10:07:13;;;;;;;17.30;15.60;;;8.30;66.10;;;;;;5087615;28;20224;-65
2020/12/09 10:09:39;;;;;;;18.33;16.50;;;8.30;66.10;;;;;;5087557;28;20336;-65
2020/12/09 10:12:05;;;;;;;17.83;16.07;;;8.30;66.10;;;;;;5086370;28;20705;-64
2020/12/09 10:14:33;;;;;;;16.77;15.03;;;8.30;66.10;;;;;;5087103;28;20641;-64
2020/12/09 10:17:00;;;;;;;17.00;15.37;;;8.30;66.20;;;;;;5086855;28;20633;-66
2020/12/09 10:19:27;;;;;;;16.30;14.70;;;8.30;66.20;;;;;;5086406;28;20201;-65
2020/12/09 10:21:53;;;;;;;17.50;15.70;;;8.30;66.20;;;;;;5089091;28;20709;-65
2020/12/09 10:24:20;;;;;;;16.63;14.93;;;8.30;66.30;;;;;;5093451;28;20677;-65
2020/12/09 10:26:47;;;;;;;16.10;14.40;;;8.30;66.30;;;;;;5087615;28;20231;-71
2020/12/09 10:29:14;;;;;;;16.70;15.10;;;8.30;66.20;;;;;;5088209;28;20208;-64
2020/12/09 10:31:44;;;;;;;16.97;15.17;;;8.30;66.10;;;;;;5083912;28;20270;-64
2020/12/09 10:34:14;;;;;;;15.37;13.90;;;8.30;66.00;;;;;;5084643;28;20192;-64
2020/12/09 10:36:48;;;;;;;16.47;14.87;;;8.30;66.00;;;;;;5079012;28;20598;-64
2020/12/09 10:39:15;;;;;;;17.97;16.20;;;8.30;66.00;;;;;;5081077;28;20234;-64
2020/12/09 10:41:42;;;;;;;15.43;13.93;;;8.30;66.00;;;;;;5079545;28;20707;-64
2020/12/09 10:44:10;;;;;;;15.37;13.87;;;8.30;66.10;;;;;;5084217;28;20559;-64
2020/12/09 10:46:39;;;;;;;15.53;14.03;;;8.30;66.20;;;;;;5079926;28;20233;-65
2020/12/09 10:49:10;;;;;;;15.20;13.70;;;8.30;66.20;;;;;;5084301;28;20200;-65
2020/12/09 10:51:44;;;;;;;15.53;14.00;;;8.30;66.30;;;;;;5085016;28;20223;-64
2020/12/09 10:54:10;;;;;;;15.57;13.97;;;8.30;66.30;;;;;;5084810;28;20204;-64
2020/12/09 10:56:36;;;;;;;14.77;13.33;;;8.30;66.20;;;;;;5084016;28;20211;-64
2020/12/09 10:59:03;;;;;;;15.03;13.53;;;8.30;66.20;;;;;;5083653;28;20262;-64
2020/12/09 11:01:30;;;;;;;14.47;13.13;;;8.30;66.20;;;;;;5076638;28;20224;-64
2020/12/09 11:03:57;;;;;;;15.53;14.03;;;8.30;66.30;;;;;;5082604;28;20216;-64
2020/12/09 11:06:28;;;;;;;15.43;13.90;;;8.30;66.40;;;;;;5079676;28;20232;-63
2020/12/09 11:08:55;;;;;;;14.30;12.93;;;8.30;66.40;;;;;;5079290;28;20219;-66
2020/12/09 11:11:23;;;;;;;14.03;12.70;;;8.40;66.50;;;;;;5077988;28;20211;-64
2020/12/09 11:13:49;;;;;;;14.07;12.63;;;8.40;66.40;;;;;;5081861;28;20200;-63
2020/12/09 11:16:15;;;;;;;14.07;12.73;;;8.40;66.20;;;;;;5081211;28;20391;-65
2020/12/09 11:18:43;;;;;;;14.60;13.30;;;8.40;66.10;;;;;;5079187;28;20201;-64
2020/12/09 11:21:10;;;;;;;15.47;14.03;;;8.40;65.80;;;;;;5081402;28;20196;-62
2020/12/09 11:23:38;;;;;;;14.80;13.40;;;8.40;65.60;;;;;;5086482;28;20253;-62
2020/12/09 11:26:08;;;;;;;14.07;12.77;;;8.40;65.60;;;;;;5080267;28;20220;-63
2020/12/09 11:28:35;;;;;;;14.93;13.53;;;8.40;66.00;;;;;;5077094;28;20266;-63
2020/12/09 11:31:01;;;;;;;13.67;12.37;;;8.40;66.10;;;;;;5085669;28;20858;-63
2020/12/09 11:33:28;;;;;;;13.70;12.40;;;8.40;66.10;;;;;;5084010;28;20244;-64
2020/12/09 11:35:55;;;;;;;13.33;12.10;;;8.40;66.20;;;;;;5086309;28;20634;-63
2020/12/09 11:38:22;;;;;;;13.60;12.37;;;8.40;66.30;;;;;;5088741;28;20204;-65
2020/12/09 11:40:49;;;;;;;14.23;12.90;;;8.40;66.20;;;;;;5086535;28;20215;-64
2020/12/09 11:43:16;;;;;;;13.30;11.90;;;8.40;66.00;;;;;;5084938;28;20220;-64
2020/12/09 11:45:42;;;;;;;13.53;12.27;;;8.40;66.00;;;;;;5082464;28;22622;-64
2020/12/09 11:48:09;;;;;;;13.43;12.23;;;8.40;66.20;;;;;;5076883;28;20337;-64
2020/12/09 11:50:35;;;;;;;14.20;12.90;;;8.40;66.20;;;;;;5078787;28;20205;-63
2020/12/09 11:53:02;;;;;;;14.47;13.10;;;8.50;66.30;;;;;;5079467;28;20232;-63
2020/12/09 11:55:29;;;;;;;14.73;13.23;;;8.50;66.20;;;;;;5078721;28;20276;-62
2020/12/09 11:57:56;;;;;;;14.70;13.20;;;8.50;66.10;;;;;;5077018;28;20212;-65
2020/12/09 12:00:22;;;;;;;14.13;12.73;;;8.50;66.20;;;;;;5079842;28;20212;-63
2020/12/09 12:02:50;;;;;;;13.57;12.27;;;8.50;66.30;;;;;;5080186;28;20224;-64
2020/12/09 12:05:21;;;;;;;12.77;11.67;;;8.50;66.20;;;;;;5084016;28;20211;-63
2020/12/09 12:07:47;;;;;;;13.27;12.07;;;8.50;66.10;;;;;;5077292;28;20228;-63
2020/12/09 12:10:14;;;;;;;13.37;12.10;;;8.50;65.90;;;;;;5080432;28;20211;-59
2020/12/09 12:12:40;;;;;;;13.80;12.47;;;8.50;65.80;;;;;;5080865;28;20220;-61
2020/12/09 12:15:08;;;;;;;12.90;11.70;;;8.50;65.70;;;;;;5082331;28;20216;-62
2020/12/09 12:17:34;;;;;;;13.30;12.00;;;8.50;65.70;;;;;;5075952;28;20211;-63
2020/12/09 12:20:00;;;;;;;13.30;12.10;;;8.50;65.90;;;;;;5076655;28;20208;-62
2020/12/09 12:22:29;;;;;;;13.27;11.97;;;8.50;66.00;;;;;;5078211;28;20219;-63
2020/12/09 12:24:55;;;;;;;13.03;11.83;;;8.50;66.10;;;;;;5078871;28;20228;-64
2020/12/09 12:27:22;;;;;;;13.10;11.87;;;8.50;66.10;;;;;;5078275;28;20239;-63
2020/12/09 12:29:48;;;;;;;13.43;12.13;;;8.50;66.00;;;;;;5077559;28;20215;-64
2020/12/09 12:32:16;;;;;;;12.80;11.60;;;8.50;65.90;;;;;;5076019;28;20224;-64
2020/12/09 12:34:42;;;;;;;13.30;12.00;;;8.50;65.90;;;;;;5076518;28;20211;-65
2020/12/09 12:37:09;;;;;;;11.97;10.87;;;8.50;65.90;;;;;;5077476;28;20214;-64
2020/12/09 12:39:35;;;;;;;12.43;11.33;;;8.50;65.90;;;;;;5078678;28;20216;-64
2020/12/09 12:42:02;;;;;;;12.80;11.50;;;8.50;66.10;;;;;;5078651;28;20847;-64
2020/12/09 12:44:28;;;;;;;11.80;10.73;;;8.50;66.00;;;;;;5078389;28;20210;-63
2020/12/09 12:46:54;;;;;;;11.70;10.60;;;8.50;65.80;;;;;;5078749;28;20231;-63
2020/12/09 12:49:22;;;;;;;11.30;10.30;;;8.50;65.80;;;;;;5074471;28;20234;-64
2020/12/09 12:51:51;;;;;;;11.33;10.23;;;8.50;65.80;;;;;;5079961;28;20243;-63
2020/12/09 12:54:18;;;;;;;11.70;10.70;;;8.50;65.80;;;;;;5085712;28;20691;-64
2020/12/09 12:56:44;;;;;;;10.90;9.90;;;8.50;65.80;;;;;;5079422;28;20200;-64
2020/12/09 12:59:11;;;;;;;11.17;10.10;;;8.50;65.80;;;;;;5076417;28;20573;-63
2020/12/09 13:01:37;;;;;;;10.87;9.93;;;8.50;65.80;;;;;;5080170;28;20232;-63
2020/12/09 13:04:03;;;;;;;10.90;9.93;;;8.50;65.60;;;;;;5077555;28;20213;-63